sensor_id;sensor_type;location;lat;lon;timestamp;pressure;altitude;pressure_sealevel;temperature;humidity
67373;BME280;54257;54.496;18.412;2023-01-29T00:02:22;100262.39;;;-0.32;90.98
67373;BME280;54257;54.496;18.412;2023-01-29T00:04:50;100265.31;;;-0.30;90.95
67373;BME280;54257;54.496;18.412;2023-01-29T00:07:17;100269.58;;;-0.29;90.92
67373;BME280;54257;54.496;18.412;2023-01-29T00:09:54;100271.81;;;-0.28;91.19
67373;BME280;54257;54.496;18.412;2023-01-29T00:12:21;100278.23;;;-0.27;91.09
67373;BME280;54257;54.496;18.412;2023-01-29T00:14:48;100278.80;;;-0.26;91.20
67373;BME280;54257;54.496;18.412;2023-01-29T00:17:16;100277.01;;;-0.26;91.29
67373;BME280;54257;54.496;18.412;2023-01-29T00:19:44;100281.70;;;-0.23;91.18
67373;BME280;54257;54.496;18.412;2023-01-29T00:22:11;100286.13;;;-0.22;91.38
67373;BME280;54257;54.496;18.412;2023-01-29T00:24:38;100288.55;;;-0.21;91.32
67373;BME280;54257;54.496;18.412;2023-01-29T00:27:05;100289.13;;;-0.20;91.21
67373;BME280;54257;54.496;18.412;2023-01-29T00:29:32;100284.52;;;-0.18;91.15
67373;BME280;54257;54.496;18.412;2023-01-29T00:31:59;100282.55;;;-0.17;91.22
67373;BME280;54257;54.496;18.412;2023-01-29T00:34:27;100288.14;;;-0.17;91.29
67373;BME280;54257;54.496;18.412;2023-01-29T00:36:54;100288.57;;;-0.16;91.21
67373;BME280;54257;54.496;18.412;2023-01-29T00:39:34;100289.98;;;-0.14;91.18
67373;BME280;54257;54.496;18.412;2023-01-29T00:42:05;100283.33;;;-0.13;91.20
67373;BME280;54257;54.496;18.412;2023-01-29T00:44:51;100289.13;;;-0.15;91.38
67373;BME280;54257;54.496;18.412;2023-01-29T00:47:24;100293.80;;;-0.12;91.36
67373;BME280;54257;54.496;18.412;2023-01-29T00:50:03;100292.83;;;-0.12;91.56
67373;BME280;54257;54.496;18.412;2023-01-29T00:52:32;100293.83;;;-0.12;91.70
67373;BME280;54257;54.496;18.412;2023-01-29T00:55:00;100295.85;;;-0.15;92.20
67373;BME280;54257;54.496;18.412;2023-01-29T00:57:29;100287.23;;;-0.16;92.11
67373;BME280;54257;54.496;18.412;2023-01-29T00:59:57;100284.20;;;-0.16;92.38
67373;BME280;54257;54.496;18.412;2023-01-29T01:02:25;100282.70;;;-0.16;92.61
67373;BME280;54257;54.496;18.412;2023-01-29T01:05:13;100279.14;;;-0.16;93.04
67373;BME280;54257;54.496;18.412;2023-01-29T01:07:49;100279.77;;;-0.17;93.24
67373;BME280;54257;54.496;18.412;2023-01-29T01:10:20;100285.23;;;-0.18;93.14
67373;BME280;54257;54.496;18.412;2023-01-29T01:12:59;100280.29;;;-0.16;93.36
67373;BME280;54257;54.496;18.412;2023-01-29T01:15:33;100269.74;;;-0.16;93.63
67373;BME280;54257;54.496;18.412;2023-01-29T01:18:02;100269.77;;;-0.16;94.03
67373;BME280;54257;54.496;18.412;2023-01-29T01:20:32;100276.35;;;-0.15;94.53
67373;BME280;54257;54.496;18.412;2023-01-29T01:22:59;100270.44;;;-0.16;95.06
67373;BME280;54257;54.496;18.412;2023-01-29T01:25:26;100262.25;;;-0.15;95.01
67373;BME280;54257;54.496;18.412;2023-01-29T01:27:55;100252.70;;;-0.15;95.43
67373;BME280;54257;54.496;18.412;2023-01-29T01:30:25;100251.13;;;-0.16;96.41
67373;BME280;54257;54.496;18.412;2023-01-29T01:32:53;100246.52;;;-0.17;96.64
67373;BME280;54257;54.496;18.412;2023-01-29T01:35:21;100227.94;;;-0.19;97.87
67373;BME280;54257;54.496;18.412;2023-01-29T01:37:48;100221.75;;;-0.21;98.68
67373;BME280;54257;54.496;18.412;2023-01-29T01:40:20;100217.99;;;-0.25;99.29
67373;BME280;54257;54.496;18.412;2023-01-29T01:42:54;100217.17;;;-0.27;99.31
67373;BME280;54257;54.496;18.412;2023-01-29T01:45:30;100212.91;;;-0.28;98.86
67373;BME280;54257;54.496;18.412;2023-01-29T01:48:09;100207.98;;;-0.30;99.30
67373;BME280;54257;54.496;18.412;2023-01-29T01:51:00;100208.23;;;-0.31;99.81
67373;BME280;54257;54.496;18.412;2023-01-29T01:53:35;100202.21;;;-0.31;99.84
67373;BME280;54257;54.496;18.412;2023-01-29T01:56:08;100197.01;;;-0.31;99.96
67373;BME280;54257;54.496;18.412;2023-01-29T01:58:42;100196.21;;;-0.33;100.00
67373;BME280;54257;54.496;18.412;2023-01-29T02:01:16;100188.54;;;-0.32;100.00
67373;BME280;54257;54.496;18.412;2023-01-29T02:03:49;100179.48;;;-0.32;100.00
67373;BME280;54257;54.496;18.412;2023-01-29T02:06:39;100180.86;;;-0.31;100.00
67373;BME280;54257;54.496;18.412;2023-01-29T02:09:30;100183.80;;;-0.30;100.00
67373;BME280;54257;54.496;18.412;2023-01-29T02:12:08;100165.14;;;-0.30;100.00
67373;BME280;54257;54.496;18.412;2023-01-29T02:14:38;100160.80;;;-0.30;100.00
67373;BME280;54257;54.496;18.412;2023-01-29T02:17:11;100159.48;;;-0.30;100.00
67373;BME280;54257;54.496;18.412;2023-01-29T02:25:40;100151.65;;;-0.25;100.00
67373;BME280;54257;54.496;18.412;2023-01-29T02:28:30;100145.72;;;-0.24;100.00
67373;BME280;54257;54.496;18.412;2023-01-29T02:39:24;100146.45;;;-0.23;100.00
67373;BME280;54257;54.496;18.412;2023-01-29T02:42:12;100149.55;;;-0.22;100.00
67373;BME280;54257;54.496;18.412;2023-01-29T02:44:46;100144.77;;;-0.20;100.00
67373;BME280;54257;54.496;18.412;2023-01-29T02:47:21;100139.48;;;-0.19;100.00
67373;BME280;54257;54.496;18.412;2023-01-29T02:49:54;100134.16;;;-0.18;100.00
67373;BME280;54257;54.496;18.412;2023-01-29T02:52:31;100133.02;;;-0.18;100.00
67373;BME280;54257;54.496;18.412;2023-01-29T02:55:50;100137.71;;;-0.15;100.00
67373;BME280;54257;54.496;18.412;2023-01-29T02:58:49;100139.45;;;-0.14;100.00
67373;BME280;54257;54.496;18.412;2023-01-29T03:01:34;100141.52;;;-0.13;100.00
67373;BME280;54257;54.496;18.412;2023-01-29T03:04:08;100148.66;;;-0.12;100.00
67373;BME280;54257;54.496;18.412;2023-01-29T03:06:47;100142.84;;;-0.11;100.00
67373;BME280;54257;54.496;18.412;2023-01-29T03:09:36;100149.27;;;-0.10;100.00
67373;BME280;54257;54.496;18.412;2023-01-29T03:12:21;100141.41;;;-0.10;100.00
67373;BME280;54257;54.496;18.412;2023-01-29T03:15:08;100140.73;;;-0.09;100.00
67373;BME280;54257;54.496;18.412;2023-01-29T03:20:31;100130.16;;;-0.07;100.00
67373;BME280;54257;54.496;18.412;2023-01-29T03:23:07;100127.02;;;-0.06;100.00
67373;BME280;54257;54.496;18.412;2023-01-29T03:25:38;100122.98;;;-0.07;100.00
67373;BME280;54257;54.496;18.412;2023-01-29T03:28:25;100120.98;;;-0.06;100.00
67373;BME280;54257;54.496;18.412;2023-01-29T03:31:14;100117.16;;;-0.06;100.00
67373;BME280;54257;54.496;18.412;2023-01-29T03:34:20;100113.33;;;-0.05;100.00
67373;BME280;54257;54.496;18.412;2023-01-29T03:37:02;100111.34;;;-0.05;100.00
67373;BME280;54257;54.496;18.412;2023-01-29T03:39:32;100112.83;;;-0.05;100.00
67373;BME280;54257;54.496;18.412;2023-01-29T03:53:15;100099.76;;;-0.05;100.00
67373;BME280;54257;54.496;18.412;2023-01-29T03:58:52;100089.02;;;-0.04;100.00
67373;BME280;54257;54.496;18.412;2023-01-29T04:01:20;100088.84;;;-0.04;100.00
67373;BME280;54257;54.496;18.412;2023-01-29T04:03:55;100088.39;;;-0.04;100.00
67373;BME280;54257;54.496;18.412;2023-01-29T04:06:28;100079.56;;;-0.03;100.00
67373;BME280;54257;54.496;18.412;2023-01-29T04:09:13;100076.33;;;-0.01;100.00
67373;BME280;54257;54.496;18.412;2023-01-29T04:11:46;100076.83;;;-0.01;100.00
67373;BME280;54257;54.496;18.412;2023-01-29T04:14:16;100081.05;;;0.00;100.00
67373;BME280;54257;54.496;18.412;2023-01-29T04:16:47;100069.98;;;-0.00;100.00
67373;BME280;54257;54.496;18.412;2023-01-29T04:19:17;100074.95;;;0.02;100.00
67373;BME280;54257;54.496;18.412;2023-01-29T04:21:47;100051.81;;;0.02;100.00
67373;BME280;54257;54.496;18.412;2023-01-29T04:24:16;100044.39;;;0.05;100.00
67373;BME280;54257;54.496;18.412;2023-01-29T04:29:43;100049.33;;;0.06;100.00
67373;BME280;54257;54.496;18.412;2023-01-29T04:35:31;100049.59;;;0.07;100.00
67373;BME280;54257;54.496;18.412;2023-01-29T04:41:21;100056.02;;;0.08;100.00
67373;BME280;54257;54.496;18.412;2023-01-29T04:44:28;100055.08;;;0.09;100.00
67373;BME280;54257;54.496;18.412;2023-01-29T04:49:51;100056.23;;;0.12;100.00
67373;BME280;54257;54.496;18.412;2023-01-29T04:55:06;100044.88;;;0.13;100.00
67373;BME280;54257;54.496;18.412;2023-01-29T04:58:07;100039.25;;;0.14;100.00
67373;BME280;54257;54.496;18.412;2023-01-29T05:00:43;100043.66;;;0.15;100.00
67373;BME280;54257;54.496;18.412;2023-01-29T05:03:16;100031.56;;;0.15;100.00
67373;BME280;54257;54.496;18.412;2023-01-29T05:05:46;100038.67;;;0.16;100.00
67373;BME280;54257;54.496;18.412;2023-01-29T05:08:21;100033.43;;;0.15;100.00
67373;BME280;54257;54.496;18.412;2023-01-29T05:10:51;100026.34;;;0.17;100.00
67373;BME280;54257;54.496;18.412;2023-01-29T05:13:21;100027.05;;;0.18;100.00
67373;BME280;54257;54.496;18.412;2023-01-29T05:15:56;100024.77;;;0.19;100.00
67373;BME280;54257;54.496;18.412;2023-01-29T05:18:27;100025.38;;;0.21;100.00
67373;BME280;54257;54.496;18.412;2023-01-29T05:20:56;100030.49;;;0.22;100.00
67373;BME280;54257;54.496;18.412;2023-01-29T05:23:25;100029.39;;;0.23;100.00
67373;BME280;54257;54.496;18.412;2023-01-29T05:25:52;100026.52;;;0.25;100.00
67373;BME280;54257;54.496;18.412;2023-01-29T05:28:19;100023.57;;;0.27;100.00
67373;BME280;54257;54.496;18.412;2023-01-29T05:30:49;100013.41;;;0.29;100.00
67373;BME280;54257;54.496;18.412;2023-01-29T05:33:17;100005.77;;;0.31;100.00
67373;BME280;54257;54.496;18.412;2023-01-29T05:35:46;100000.90;;;0.33;100.00
67373;BME280;54257;54.496;18.412;2023-01-29T05:38:14;100009.89;;;0.35;100.00
67373;BME280;54257;54.496;18.412;2023-01-29T05:40:42;100009.33;;;0.37;100.00
67373;BME280;54257;54.496;18.412;2023-01-29T05:43:18;100004.20;;;0.38;100.00
67373;BME280;54257;54.496;18.412;2023-01-29T05:45:58;100002.78;;;0.40;100.00
67373;BME280;54257;54.496;18.412;2023-01-29T05:48:27;99999.08;;;0.42;100.00
67373;BME280;54257;54.496;18.412;2023-01-29T05:51:00;100004.36;;;0.44;100.00
67373;BME280;54257;54.496;18.412;2023-01-29T05:53:30;100005.13;;;0.45;100.00
67373;BME280;54257;54.496;18.412;2023-01-29T05:56:00;100010.11;;;0.47;100.00
67373;BME280;54257;54.496;18.412;2023-01-29T05:58:31;100007.55;;;0.49;100.00
67373;BME280;54257;54.496;18.412;2023-01-29T06:01:17;99997.07;;;0.51;100.00
67373;BME280;54257;54.496;18.412;2023-01-29T06:03:45;99991.79;;;0.53;100.00
67373;BME280;54257;54.496;18.412;2023-01-29T06:06:12;99991.20;;;0.54;100.00
67373;BME280;54257;54.496;18.412;2023-01-29T06:08:40;99990.73;;;0.55;100.00
67373;BME280;54257;54.496;18.412;2023-01-29T06:11:11;99994.02;;;0.57;100.00
67373;BME280;54257;54.496;18.412;2023-01-29T06:13:39;99991.11;;;0.59;100.00
67373;BME280;54257;54.496;18.412;2023-01-29T06:16:07;99982.23;;;0.60;100.00
67373;BME280;54257;54.496;18.412;2023-01-29T06:18:37;99983.66;;;0.61;100.00
67373;BME280;54257;54.496;18.412;2023-01-29T06:21:07;99989.76;;;0.62;100.00
67373;BME280;54257;54.496;18.412;2023-01-29T06:23:35;99990.50;;;0.63;100.00
67373;BME280;54257;54.496;18.412;2023-01-29T06:26:07;99986.54;;;0.64;100.00
67373;BME280;54257;54.496;18.412;2023-01-29T06:28:36;99979.52;;;0.65;100.00
67373;BME280;54257;54.496;18.412;2023-01-29T06:31:15;99975.59;;;0.67;100.00
67373;BME280;54257;54.496;18.412;2023-01-29T06:35:11;99977.57;;;0.66;100.00
67373;BME280;54257;54.496;18.412;2023-01-29T06:37:38;99977.79;;;0.67;100.00
67373;BME280;54257;54.496;18.412;2023-01-29T06:40:05;99979.38;;;0.68;100.00
67373;BME280;54257;54.496;18.412;2023-01-29T06:42:37;99982.81;;;0.70;100.00
67373;BME280;54257;54.496;18.412;2023-01-29T06:45:04;99979.16;;;0.71;100.00
67373;BME280;54257;54.496;18.412;2023-01-29T06:47:32;99973.17;;;0.72;100.00
67373;BME280;54257;54.496;18.412;2023-01-29T06:49:59;99973.91;;;0.73;100.00
67373;BME280;54257;54.496;18.412;2023-01-29T06:52:26;99972.30;;;0.74;100.00
67373;BME280;54257;54.496;18.412;2023-01-29T06:54:55;99968.63;;;0.74;100.00
67373;BME280;54257;54.496;18.412;2023-01-29T06:57:23;99962.91;;;0.75;100.00
67373;BME280;54257;54.496;18.412;2023-01-29T06:59:50;99957.41;;;0.75;100.00
67373;BME280;54257;54.496;18.412;2023-01-29T07:02:17;99958.97;;;0.76;100.00
67373;BME280;54257;54.496;18.412;2023-01-29T07:04:44;99954.48;;;0.77;100.00
67373;BME280;54257;54.496;18.412;2023-01-29T07:07:11;99949.94;;;0.77;100.00
67373;BME280;54257;54.496;18.412;2023-01-29T07:09:40;99948.64;;;0.78;100.00
67373;BME280;54257;54.496;18.412;2023-01-29T07:12:08;99947.60;;;0.77;100.00
67373;BME280;54257;54.496;18.412;2023-01-29T07:14:36;99945.27;;;0.77;100.00
67373;BME280;54257;54.496;18.412;2023-01-29T07:17:03;99945.09;;;0.78;100.00
67373;BME280;54257;54.496;18.412;2023-01-29T07:19:30;99947.91;;;0.77;100.00
67373;BME280;54257;54.496;18.412;2023-01-29T07:21:57;99943.02;;;0.77;100.00
67373;BME280;54257;54.496;18.412;2023-01-29T07:24:28;99946.60;;;0.77;100.00
67373;BME280;54257;54.496;18.412;2023-01-29T07:26:55;99940.41;;;0.78;100.00
67373;BME280;54257;54.496;18.412;2023-01-29T07:29:26;99940.13;;;0.79;100.00
67373;BME280;54257;54.496;18.412;2023-01-29T07:31:54;99937.48;;;0.80;100.00
67373;BME280;54257;54.496;18.412;2023-01-29T07:34:25;99936.23;;;0.81;100.00
67373;BME280;54257;54.496;18.412;2023-01-29T07:36:53;99932.55;;;0.82;100.00
67373;BME280;54257;54.496;18.412;2023-01-29T07:39:20;99933.48;;;0.83;100.00
67373;BME280;54257;54.496;18.412;2023-01-29T07:41:47;99932.52;;;0.84;100.00
67373;BME280;54257;54.496;18.412;2023-01-29T07:44:14;99936.14;;;0.86;100.00
67373;BME280;54257;54.496;18.412;2023-01-29T07:46:41;99930.18;;;0.88;100.00
67373;BME280;54257;54.496;18.412;2023-01-29T07:49:08;99930.73;;;0.89;100.00
67373;BME280;54257;54.496;18.412;2023-01-29T07:51:35;99930.74;;;0.89;100.00
67373;BME280;54257;54.496;18.412;2023-01-29T07:54:02;99932.56;;;0.91;100.00
67373;BME280;54257;54.496;18.412;2023-01-29T07:56:30;99930.77;;;0.92;100.00
67373;BME280;54257;54.496;18.412;2023-01-29T07:58:57;99931.83;;;0.93;100.00
67373;BME280;54257;54.496;18.412;2023-01-29T08:01:25;99928.34;;;0.94;100.00
67373;BME280;54257;54.496;18.412;2023-01-29T08:03:55;99928.58;;;0.95;100.00
67373;BME280;54257;54.496;18.412;2023-01-29T08:06:22;99930.65;;;0.97;100.00
67373;BME280;54257;54.496;18.412;2023-01-29T08:08:50;99928.61;;;0.99;100.00
67373;BME280;54257;54.496;18.412;2023-01-29T08:11:19;99927.97;;;0.99;100.00
67373;BME280;54257;54.496;18.412;2023-01-29T08:13:46;99929.05;;;1.01;100.00
67373;BME280;54257;54.496;18.412;2023-01-29T08:16:13;99928.27;;;1.02;100.00
67373;BME280;54257;54.496;18.412;2023-01-29T08:18:40;99929.17;;;1.04;100.00
67373;BME280;54257;54.496;18.412;2023-01-29T08:21:12;99927.50;;;1.04;100.00
67373;BME280;54257;54.496;18.412;2023-01-29T08:23:39;99921.93;;;1.06;100.00
67373;BME280;54257;54.496;18.412;2023-01-29T08:26:07;99921.05;;;1.08;100.00
67373;BME280;54257;54.496;18.412;2023-01-29T08:28:35;99919.33;;;1.11;100.00
67373;BME280;54257;54.496;18.412;2023-01-29T08:31:12;99922.70;;;1.14;100.00
67373;BME280;54257;54.496;18.412;2023-01-29T08:33:40;99918.39;;;1.15;100.00
67373;BME280;54257;54.496;18.412;2023-01-29T08:36:08;99917.98;;;1.18;100.00
67373;BME280;54257;54.496;18.412;2023-01-29T08:38:35;99918.22;;;1.19;100.00
67373;BME280;54257;54.496;18.412;2023-01-29T08:41:05;99923.52;;;1.20;100.00
67373;BME280;54257;54.496;18.412;2023-01-29T08:43:35;99922.94;;;1.22;100.00
67373;BME280;54257;54.496;18.412;2023-01-29T08:46:09;99927.07;;;1.24;100.00
67373;BME280;54257;54.496;18.412;2023-01-29T08:48:39;99925.96;;;1.25;100.00
67373;BME280;54257;54.496;18.412;2023-01-29T08:51:07;99922.46;;;1.26;100.00
67373;BME280;54257;54.496;18.412;2023-01-29T08:53:35;99925.92;;;1.28;100.00
67373;BME280;54257;54.496;18.412;2023-01-29T08:56:02;99923.18;;;1.30;100.00
67373;BME280;54257;54.496;18.412;2023-01-29T08:58:29;99922.83;;;1.33;100.00
67373;BME280;54257;54.496;18.412;2023-01-29T09:00:56;99918.57;;;1.35;100.00
67373;BME280;54257;54.496;18.412;2023-01-29T09:03:31;99913.46;;;1.37;100.00
67373;BME280;54257;54.496;18.412;2023-01-29T09:05:58;99908.71;;;1.39;100.00
67373;BME280;54257;54.496;18.412;2023-01-29T09:08:25;99909.00;;;1.42;100.00
67373;BME280;54257;54.496;18.412;2023-01-29T09:10:53;99910.96;;;1.44;100.00
67373;BME280;54257;54.496;18.412;2023-01-29T09:13:20;99913.29;;;1.47;100.00
67373;BME280;54257;54.496;18.412;2023-01-29T09:15:49;99908.48;;;1.48;100.00
67373;BME280;54257;54.496;18.412;2023-01-29T09:18:17;99910.73;;;1.49;100.00
67373;BME280;54257;54.496;18.412;2023-01-29T09:20:44;99917.24;;;1.51;100.00
67373;BME280;54257;54.496;18.412;2023-01-29T09:23:20;99922.50;;;1.52;100.00
67373;BME280;54257;54.496;18.412;2023-01-29T09:26:06;99917.98;;;1.53;100.00
67373;BME280;54257;54.496;18.412;2023-01-29T09:28:37;99912.77;;;1.53;100.00
67373;BME280;54257;54.496;18.412;2023-01-29T09:31:06;99908.39;;;1.53;100.00
67373;BME280;54257;54.496;18.412;2023-01-29T09:33:35;99911.08;;;1.53;100.00
67373;BME280;54257;54.496;18.412;2023-01-29T09:36:03;99903.50;;;1.53;100.00
67373;BME280;54257;54.496;18.412;2023-01-29T09:38:30;99898.30;;;1.53;100.00
67373;BME280;54257;54.496;18.412;2023-01-29T09:48:42;99897.41;;;1.49;100.00
67373;BME280;54257;54.496;18.412;2023-01-29T09:51:25;99898.91;;;1.48;100.00
67373;BME280;54257;54.496;18.412;2023-01-29T09:54:15;99901.27;;;1.48;100.00
67373;BME280;54257;54.496;18.412;2023-01-29T09:56:45;99891.08;;;1.47;100.00
67373;BME280;54257;54.496;18.412;2023-01-29T09:59:16;99883.56;;;1.48;100.00
67373;BME280;54257;54.496;18.412;2023-01-29T10:04:48;99880.88;;;1.48;100.00
67373;BME280;54257;54.496;18.412;2023-01-29T10:13:47;99879.31;;;1.50;100.00
67373;BME280;54257;54.496;18.412;2023-01-29T10:16:57;99872.96;;;1.51;100.00
67373;BME280;54257;54.496;18.412;2023-01-29T10:25:15;99857.88;;;1.52;100.00
67373;BME280;54257;54.496;18.412;2023-01-29T10:27:55;99850.02;;;1.54;100.00
67373;BME280;54257;54.496;18.412;2023-01-29T10:30:33;99844.71;;;1.55;100.00
67373;BME280;54257;54.496;18.412;2023-01-29T10:33:05;99838.20;;;1.59;100.00
67373;BME280;54257;54.496;18.412;2023-01-29T10:35:40;99843.34;;;1.61;100.00
67373;BME280;54257;54.496;18.412;2023-01-29T10:38:22;99841.35;;;1.65;100.00
67373;BME280;54257;54.496;18.412;2023-01-29T10:40:58;99838.59;;;1.67;100.00
67373;BME280;54257;54.496;18.412;2023-01-29T10:52:48;99810.63;;;1.80;100.00
67373;BME280;54257;54.496;18.412;2023-01-29T10:57:50;99802.14;;;1.86;100.00
67373;BME280;54257;54.496;18.412;2023-01-29T11:00:27;99803.46;;;1.88;100.00
67373;BME280;54257;54.496;18.412;2023-01-29T11:05:48;99799.00;;;1.90;100.00
67373;BME280;54257;54.496;18.412;2023-01-29T11:11:17;99783.83;;;1.94;100.00
67373;BME280;54257;54.496;18.412;2023-01-29T11:14:00;99773.27;;;1.95;100.00
67373;BME280;54257;54.496;18.412;2023-01-29T11:16:40;99766.27;;;1.96;100.00
67373;BME280;54257;54.496;18.412;2023-01-29T11:19:11;99765.73;;;1.95;100.00
67373;BME280;54257;54.496;18.412;2023-01-29T11:22:16;99764.93;;;1.96;100.00
67373;BME280;54257;54.496;18.412;2023-01-29T11:24:43;99767.36;;;1.98;100.00
67373;BME280;54257;54.496;18.412;2023-01-29T11:27:24;99765.92;;;1.99;100.00
67373;BME280;54257;54.496;18.412;2023-01-29T11:29:56;99762.52;;;2.02;100.00
67373;BME280;54257;54.496;18.412;2023-01-29T11:32:27;99760.59;;;2.04;100.00
67373;BME280;54257;54.496;18.412;2023-01-29T11:37:40;99752.62;;;2.07;100.00
67373;BME280;54257;54.496;18.412;2023-01-29T11:42:45;99748.89;;;2.06;100.00
67373;BME280;54257;54.496;18.412;2023-01-29T11:47:51;99746.52;;;2.06;100.00
67373;BME280;54257;54.496;18.412;2023-01-29T11:50:25;99747.48;;;2.09;100.00
67373;BME280;54257;54.496;18.412;2023-01-29T11:52:52;99744.19;;;2.10;100.00
67373;BME280;54257;54.496;18.412;2023-01-29T12:00:39;99742.80;;;2.13;100.00
67373;BME280;54257;54.496;18.412;2023-01-29T12:03:40;99744.04;;;2.14;100.00
67373;BME280;54257;54.496;18.412;2023-01-29T12:06:32;99745.91;;;2.15;100.00
67373;BME280;54257;54.496;18.412;2023-01-29T12:09:07;99734.41;;;2.13;100.00
67373;BME280;54257;54.496;18.412;2023-01-29T12:11:35;99723.92;;;2.12;100.00
67373;BME280;54257;54.496;18.412;2023-01-29T12:14:04;99718.89;;;2.12;100.00
67373;BME280;54257;54.496;18.412;2023-01-29T12:16:44;99716.77;;;2.11;100.00
67373;BME280;54257;54.496;18.412;2023-01-29T12:19:36;99707.28;;;2.10;100.00
67373;BME280;54257;54.496;18.412;2023-01-29T12:25:02;99701.73;;;2.10;100.00
67373;BME280;54257;54.496;18.412;2023-01-29T12:33:13;99688.22;;;2.09;100.00
67373;BME280;54257;54.496;18.412;2023-01-29T12:35:57;99678.66;;;2.11;100.00
67373;BME280;54257;54.496;18.412;2023-01-29T12:38:29;99677.30;;;2.10;100.00
67373;BME280;54257;54.496;18.412;2023-01-29T12:41:07;99676.90;;;2.08;100.00
67373;BME280;54257;54.496;18.412;2023-01-29T12:43:44;99671.16;;;2.08;100.00
67373;BME280;54257;54.496;18.412;2023-01-29T12:46:37;99669.44;;;2.07;100.00
67373;BME280;54257;54.496;18.412;2023-01-29T12:49:21;99673.31;;;2.07;100.00
67373;BME280;54257;54.496;18.412;2023-01-29T12:52:04;99664.30;;;2.05;100.00
67373;BME280;54257;54.496;18.412;2023-01-29T12:54:53;99659.03;;;2.04;100.00
67373;BME280;54257;54.496;18.412;2023-01-29T12:57:36;99653.41;;;2.03;100.00
67373;BME280;54257;54.496;18.412;2023-01-29T13:00:15;99650.17;;;2.02;100.00
67373;BME280;54257;54.496;18.412;2023-01-29T13:08:49;99644.40;;;2.01;100.00
67373;BME280;54257;54.496;18.412;2023-01-29T13:14:05;99645.89;;;2.01;100.00
67373;BME280;54257;54.496;18.412;2023-01-29T13:16:39;99641.83;;;2.00;100.00
67373;BME280;54257;54.496;18.412;2023-01-29T13:19:19;99638.92;;;2.00;100.00
67373;BME280;54257;54.496;18.412;2023-01-29T13:21:49;99633.95;;;1.97;100.00
67373;BME280;54257;54.496;18.412;2023-01-29T13:24:21;99637.35;;;1.98;100.00
67373;BME280;54257;54.496;18.412;2023-01-29T13:26:49;99635.64;;;1.97;100.00
67373;BME280;54257;54.496;18.412;2023-01-29T13:29:24;99631.84;;;1.99;100.00
67373;BME280;54257;54.496;18.412;2023-01-29T13:31:54;99633.54;;;2.00;100.00
67373;BME280;54257;54.496;18.412;2023-01-29T13:34:25;99630.66;;;1.99;100.00
67373;BME280;54257;54.496;18.412;2023-01-29T13:37:03;99619.42;;;2.00;100.00
67373;BME280;54257;54.496;18.412;2023-01-29T13:39:39;99619.98;;;2.01;100.00
67373;BME280;54257;54.496;18.412;2023-01-29T13:42:21;99623.55;;;2.02;100.00
67373;BME280;54257;54.496;18.412;2023-01-29T13:44:54;99623.83;;;2.04;100.00
67373;BME280;54257;54.496;18.412;2023-01-29T13:47:25;99627.94;;;2.06;100.00
67373;BME280;54257;54.496;18.412;2023-01-29T13:49:58;99624.34;;;2.08;100.00
67373;BME280;54257;54.496;18.412;2023-01-29T13:55:03;99624.44;;;2.14;100.00
67373;BME280;54257;54.496;18.412;2023-01-29T14:05:42;99628.91;;;2.20;100.00
67373;BME280;54257;54.496;18.412;2023-01-29T14:10:43;99619.64;;;2.19;100.00
67373;BME280;54257;54.496;18.412;2023-01-29T14:15:38;99622.50;;;2.20;100.00
67373;BME280;54257;54.496;18.412;2023-01-29T14:18:24;99628.13;;;2.21;100.00
67373;BME280;54257;54.496;18.412;2023-01-29T14:21:19;99624.57;;;2.20;100.00
67373;BME280;54257;54.496;18.412;2023-01-29T14:23:49;99623.48;;;2.19;100.00
67373;BME280;54257;54.496;18.412;2023-01-29T14:26:28;99612.40;;;2.20;100.00
67373;BME280;54257;54.496;18.412;2023-01-29T14:29:02;99605.81;;;2.20;100.00
67373;BME280;54257;54.496;18.412;2023-01-29T14:31:39;99604.96;;;2.19;100.00
67373;BME280;54257;54.496;18.412;2023-01-29T14:34:34;99601.34;;;2.18;100.00
67373;BME280;54257;54.496;18.412;2023-01-29T14:39:47;99598.52;;;2.15;100.00
67373;BME280;54257;54.496;18.412;2023-01-29T14:53:02;99591.31;;;2.12;100.00
67373;BME280;54257;54.496;18.412;2023-01-29T14:58:40;99591.93;;;2.11;100.00
67373;BME280;54257;54.496;18.412;2023-01-29T15:01:19;99590.02;;;2.09;100.00
67373;BME280;54257;54.496;18.412;2023-01-29T15:04:02;99587.19;;;2.06;100.00
67373;BME280;54257;54.496;18.412;2023-01-29T15:09:11;99573.84;;;2.05;100.00
67373;BME280;54257;54.496;18.412;2023-01-29T15:11:57;99562.23;;;2.05;100.00
67373;BME280;54257;54.496;18.412;2023-01-29T15:14:40;99554.08;;;2.04;100.00
67373;BME280;54257;54.496;18.412;2023-01-29T15:17:36;99550.11;;;2.02;100.00
67373;BME280;54257;54.496;18.412;2023-01-29T15:20:38;99543.05;;;1.98;100.00
67373;BME280;54257;54.496;18.412;2023-01-29T15:23:27;99548.50;;;1.95;100.00
67373;BME280;54257;54.496;18.412;2023-01-29T15:26:22;99540.20;;;1.94;100.00
67373;BME280;54257;54.496;18.412;2023-01-29T15:28:58;99539.15;;;1.94;100.00
67373;BME280;54257;54.496;18.412;2023-01-29T15:31:27;99538.11;;;1.93;100.00
67373;BME280;54257;54.496;18.412;2023-01-29T15:33:55;99531.38;;;1.93;100.00
67373;BME280;54257;54.496;18.412;2023-01-29T15:36:26;99530.25;;;1.94;100.00
67373;BME280;54257;54.496;18.412;2023-01-29T15:39:24;99526.73;;;1.95;100.00
67373;BME280;54257;54.496;18.412;2023-01-29T15:42:14;99521.38;;;1.95;100.00
67373;BME280;54257;54.496;18.412;2023-01-29T15:44:49;99517.31;;;1.95;100.00
67373;BME280;54257;54.496;18.412;2023-01-29T15:47:17;99518.61;;;1.94;100.00
67373;BME280;54257;54.496;18.412;2023-01-29T15:49:47;99532.40;;;1.93;100.00
67373;BME280;54257;54.496;18.412;2023-01-29T15:52:19;99528.99;;;1.92;100.00
67373;BME280;54257;54.496;18.412;2023-01-29T15:54:48;99528.13;;;1.92;100.00